Time;durP1;ratioP1;P1;durP2;ratioP2;P2;SDS_P1;SDS_P2;PMS_P1;PMS_P2;Temp;Humidity;BMP_temperature;BMP_pressure;BME280_temperature;BME280_humidity;BME280_pressure;Samples;Min_cycle;Max_cycle;Signal;HPM_P1;HPM_P2
2023/02/18 00:00:35;;;;;;;10.88;3.60;;;7.60;1.00;;;;;;6266321;22;20192;-81
2023/02/18 00:03:05;;;;;;;15.18;3.63;;;7.60;1.00;;;;;;6248902;22;20210;-79
2023/02/18 00:05:35;;;;;;;18.80;3.38;;;7.50;1.00;;;;;;6206111;23;20255;-82
2023/02/18 00:08:16;;;;;;;15.88;3.67;;;7.50;1.00;;;;;;6174926;23;20218;-80
2023/02/18 00:10:46;;;;;;;12.13;3.75;;;7.50;1.00;;;;;;6191862;23;20206;-80
2023/02/18 00:13:16;;;;;;;13.73;4.15;;;7.50;1.00;;;;;;6206320;22;20190;-81
2023/02/18 00:15:46;;;;;;;13.23;3.00;;;7.50;1.00;;;;;;6264424;22;20197;-80
2023/02/18 00:18:17;;;;;;;10.45;2.88;;;7.50;1.00;;;;;;6242924;22;20210;-82
2023/02/18 00:20:48;;;;;;;11.52;3.17;;;7.50;1.00;;;;;;6249743;22;20218;-81
2023/02/18 00:23:16;;;;;;;15.63;3.08;;;7.50;1.00;;;;;;6234264;22;20236;-81
2023/02/18 00:25:46;;;;;;;13.45;3.15;;;7.50;1.00;;;;;;6238854;22;20213;-83
2023/02/18 00:28:17;;;;;;;15.45;3.50;;;7.50;1.00;;;;;;6246828;22;20219;-80
2023/02/18 00:30:48;;;;;;;23.55;4.35;;;7.50;1.00;;;;;;6252439;22;20192;-82
2023/02/18 00:33:16;;;;;;;11.90;2.60;;;7.50;1.00;;;;;;6248274;22;20232;-78
2023/02/18 00:35:45;;;;;;;11.55;2.45;;;7.50;1.00;;;;;;6236198;22;20217;-81
2023/02/18 00:38:16;;;;;;;9.13;2.38;;;7.40;1.00;;;;;;6257696;22;20212;-79
2023/02/18 00:40:47;;;;;;;11.07;3.45;;;7.40;1.00;;;;;;6264599;22;20217;-80
2023/02/18 00:43:15;;;;;;;10.45;3.70;;;7.30;1.00;;;;;;6219063;22;20218;-79
2023/02/18 00:45:42;;;;;;;14.40;3.70;;;7.30;1.00;;;;;;6252545;22;20954;-79
2023/02/18 00:48:09;;;;;;;14.20;4.20;;;7.20;1.00;;;;;;6251240;22;20292;-79
2023/02/18 00:50:36;;;;;;;11.90;3.50;;;7.20;1.00;;;;;;6251780;22;21024;-79
2023/02/18 00:53:03;;;;;;;10.90;2.80;;;7.10;1.00;;;;;;6247996;22;20267;-79
2023/02/18 00:55:31;;;;;;;17.83;4.50;;;7.00;1.00;;;;;;6251127;22;20213;-79
2023/02/18 00:57:59;;;;;;;11.50;3.92;;;7.00;1.00;;;;;;6210032;22;20214;-78
2023/02/18 01:00:28;;;;;;;15.88;3.30;;;7.00;1.00;;;;;;6250350;22;20272;-79
2023/02/18 01:02:57;;;;;;;17.65;4.25;;;6.90;1.00;;;;;;6231108;22;20209;-80
2023/02/18 01:05:25;;;;;;;15.73;3.25;;;6.90;1.00;;;;;;6241832;22;20245;-79
2023/02/18 01:08:07;;;;;;;12.80;3.47;;;6.90;1.00;;;;;;6252199;22;20218;-81
2023/02/18 01:10:45;;;;;;;11.13;2.95;;;6.90;1.00;;;;;;6235910;22;20214;-80
2023/02/18 01:13:16;;;;;;;11.50;3.78;;;6.80;1.00;;;;;;6225317;22;21080;-79
2023/02/18 01:15:45;;;;;;;14.07;3.55;;;6.80;1.00;;;;;;6250474;22;20251;-79
2023/02/18 01:18:15;;;;;;;11.35;3.17;;;6.80;1.00;;;;;;6219925;22;20228;-79
2023/02/18 01:20:49;;;;;;;13.20;3.83;;;6.80;1.00;;;;;;6201914;22;20214;-79
2023/02/18 01:23:18;;;;;;;15.57;4.20;;;6.80;1.00;;;;;;6246701;22;20256;-80
2023/02/18 01:25:47;;;;;;;15.23;3.80;;;6.80;1.00;;;;;;6250202;22;20210;-79
2023/02/18 01:28:24;;;;;;;12.65;3.53;;;6.80;1.00;;;;;;6243527;22;20244;-78
2023/02/18 01:31:00;;;;;;;23.02;4.82;;;6.80;1.00;;;;;;6227957;22;20277;-79
2023/02/18 01:33:34;;;;;;;11.95;3.45;;;6.80;1.00;;;;;;6217692;22;20213;-78
2023/02/18 01:36:06;;;;;;;14.25;3.03;;;6.70;1.00;;;;;;6247650;22;20284;-78
2023/02/18 01:38:33;;;;;;;12.10;2.83;;;6.70;1.00;;;;;;6257086;22;20213;-79
2023/02/18 01:41:01;;;;;;;16.90;4.25;;;6.70;1.00;;;;;;6257078;22;20272;-79
2023/02/18 01:43:29;;;;;;;11.30;3.00;;;6.70;1.00;;;;;;6251123;22;20229;-79
2023/02/18 01:46:18;;;;;;;12.63;2.90;;;6.70;1.00;;;;;;6252013;22;20216;-79
2023/02/18 01:48:50;;;;;;;17.75;2.78;;;6.80;1.00;;;;;;6249447;22;20716;-80
2023/02/18 01:51:23;;;;;;;11.20;3.35;;;6.70;1.00;;;;;;6253419;22;20271;-80
2023/02/18 01:53:55;;;;;;;11.73;2.97;;;6.70;1.00;;;;;;6251513;22;20223;-79
2023/02/18 01:56:29;;;;;;;13.88;3.20;;;6.70;1.00;;;;;;6252379;22;20217;-79
2023/02/18 01:58:58;;;;;;;15.25;3.55;;;6.70;1.00;;;;;;6250674;22;21005;-80
2023/02/18 02:01:26;;;;;;;12.52;2.72;;;6.80;1.00;;;;;;6248797;22;20208;-79
2023/02/18 02:03:55;;;;;;;12.93;3.53;;;6.80;1.00;;;;;;6239694;22;20272;-78
2023/02/18 02:06:28;;;;;;;13.13;2.85;;;6.80;1.00;;;;;;6256112;22;20237;-79
2023/02/18 02:08:58;;;;;;;22.48;2.97;;;6.80;1.00;;;;;;6253741;22;20219;-78
2023/02/18 02:11:54;;;;;;;12.60;3.90;;;6.70;1.00;;;;;;6258619;22;20213;-79
2023/02/18 02:14:54;;;;;;;15.15;3.17;;;6.70;1.00;;;;;;6245780;22;20196;-77
2023/02/18 02:17:44;;;;;;;12.60;3.38;;;6.70;1.00;;;;;;6257536;22;20228;-79
2023/02/18 02:20:48;;;;;;;13.43;3.00;;;6.70;1.00;;;;;;6259975;22;20220;-79
2023/02/18 02:24:06;;;;;;;10.88;2.80;;;6.70;1.00;;;;;;6260742;22;20212;-79
2023/02/18 02:27:10;;;;;;;12.57;2.33;;;6.70;1.00;;;;;;6262491;22;20205;-79
2023/02/18 02:29:59;;;;;;;12.50;2.50;;;6.70;1.00;;;;;;6262534;22;21048;-78
2023/02/18 02:32:55;;;;;;;11.23;3.25;;;6.70;1.00;;;;;;6262471;22;20229;-78
2023/02/18 02:35:36;;;;;;;17.38;2.60;;;6.60;1.00;;;;;;6244112;22;22005;-78
2023/02/18 02:38:13;;;;;;;15.10;3.10;;;6.60;1.00;;;;;;6246433;22;20257;-79
2023/02/18 02:40:50;;;;;;;11.75;2.50;;;6.60;1.00;;;;;;6251009;22;20212;-79
2023/02/18 02:43:35;;;;;;;23.00;3.55;;;6.60;1.00;;;;;;6247040;22;20212;-78
2023/02/18 02:46:09;;;;;;;14.05;2.75;;;6.50;1.00;;;;;;6243784;22;20205;-79
2023/02/18 02:48:45;;;;;;;18.70;3.28;;;6.50;1.00;;;;;;6219800;22;20212;-79
2023/02/18 02:51:24;;;;;;;15.25;3.08;;;6.50;1.00;;;;;;6231943;23;20240;-78
2023/02/18 02:54:15;;;;;;;10.85;2.50;;;6.50;1.00;;;;;;6254015;22;20209;-78
2023/02/18 02:56:45;;;;;;;13.18;2.65;;;6.50;1.00;;;;;;6251436;22;20230;-78
2023/02/18 02:59:24;;;;;;;12.40;3.38;;;6.40;1.00;;;;;;6262807;22;20202;-78
2023/02/18 03:02:05;;;;;;;12.98;2.97;;;6.50;1.00;;;;;;6249404;22;20228;-79
2023/02/18 03:04:55;;;;;;;11.55;3.03;;;6.40;1.00;;;;;;6245176;22;20294;-80
2023/02/18 03:07:44;;;;;;;14.43;3.20;;;6.40;1.00;;;;;;6262291;22;21461;-80
2023/02/18 03:10:26;;;;;;;11.35;3.10;;;6.50;1.00;;;;;;6254875;22;20193;-79
2023/02/18 03:13:10;;;;;;;16.17;3.05;;;6.50;1.00;;;;;;6248052;22;20205;-77
2023/02/18 03:15:49;;;;;;;12.85;3.33;;;6.50;1.00;;;;;;6237577;22;20260;-78
2023/02/18 03:18:35;;;;;;;15.63;3.25;;;6.50;1.00;;;;;;6232667;22;20209;-77
2023/02/18 03:21:08;;;;;;;15.95;3.15;;;6.50;1.00;;;;;;6263538;22;20209;-78
2023/02/18 03:23:46;;;;;;;11.68;3.00;;;6.40;1.00;;;;;;6262366;22;20209;-78
2023/02/18 03:26:17;;;;;;;13.75;2.25;;;6.40;1.00;;;;;;6260722;22;20208;-78
2023/02/18 03:28:46;;;;;;;11.23;2.53;;;6.40;1.00;;;;;;6260988;22;20208;-77
2023/02/18 03:31:25;;;;;;;12.30;2.67;;;6.40;1.00;;;;;;6264820;22;20223;-79
2023/02/18 03:34:05;;;;;;;11.15;2.42;;;6.40;1.00;;;;;;6261352;22;20216;-79
2023/02/18 03:36:36;;;;;;;14.25;2.40;;;6.40;1.00;;;;;;6262730;22;20252;-79
2023/02/18 03:39:15;;;;;;;12.23;2.60;;;6.50;1.00;;;;;;6262613;22;20210;-78
2023/02/18 03:41:44;;;;;;;12.68;2.33;;;6.50;1.00;;;;;;6259140;22;20212;-79
2023/02/18 03:44:16;;;;;;;18.02;4.03;;;6.50;1.00;;;;;;6252463;22;20216;-78
2023/02/18 03:46:44;;;;;;;10.93;2.65;;;6.60;1.00;;;;;;6252586;22;20704;-78
2023/02/18 03:49:15;;;;;;;12.00;2.88;;;6.60;1.00;;;;;;6251136;22;20217;-80
2023/02/18 03:51:43;;;;;;;15.27;2.35;;;6.60;1.00;;;;;;6253505;22;20535;-80
2023/02/18 03:54:15;;;;;;;11.20;3.15;;;6.60;1.00;;;;;;6249331;22;20770;-80
2023/02/18 03:56:46;;;;;;;11.07;2.40;;;6.60;1.00;;;;;;6252491;22;20228;-80
2023/02/18 03:59:18;;;;;;;11.05;2.53;;;6.60;1.00;;;;;;6234218;22;20673;-80
2023/02/18 04:01:45;;;;;;;13.35;2.78;;;6.60;1.00;;;;;;6248539;22;20658;-80
2023/02/18 04:04:12;;;;;;;9.82;2.42;;;6.60;1.00;;;;;;6250589;22;20269;-80
2023/02/18 04:06:39;;;;;;;8.52;1.95;;;6.50;1.00;;;;;;6248357;22;20213;-79
2023/02/18 04:09:07;;;;;;;15.95;2.78;;;6.50;1.00;;;;;;6230778;22;20213;-82
2023/02/18 04:11:38;;;;;;;8.85;2.22;;;6.50;1.00;;;;;;6258413;22;20228;-79
2023/02/18 04:14:10;;;;;;;8.07;1.90;;;6.50;1.00;;;;;;6262996;22;20231;-80
2023/02/18 04:16:37;;;;;;;9.48;2.30;;;6.50;1.00;;;;;;6256748;22;20209;-80
2023/02/18 04:19:09;;;;;;;13.25;2.00;;;6.50;1.00;;;;;;6256027;22;20248;-79
2023/02/18 04:21:36;;;;;;;16.75;3.50;;;6.50;1.00;;;;;;6241978;22;20209;-78
2023/02/18 04:24:06;;;;;;;10.57;2.15;;;6.40;1.00;;;;;;6264728;22;20220;-79
2023/02/18 04:26:40;;;;;;;8.27;2.17;;;6.40;1.00;;;;;;6266127;22;20217;-78
2023/02/18 04:29:15;;;;;;;10.32;2.78;;;6.40;1.00;;;;;;6263264;22;20212;-78
2023/02/18 04:31:45;;;;;;;11.80;3.00;;;6.40;1.00;;;;;;6264231;22;20211;-79
2023/02/18 04:34:36;;;;;;;12.65;3.55;;;6.40;1.00;;;;;;6251391;22;20213;-79
2023/02/18 04:37:08;;;;;;;16.90;2.55;;;6.30;1.00;;;;;;6250854;22;20212;-79
2023/02/18 04:39:38;;;;;;;11.88;2.75;;;6.30;1.00;;;;;;6262437;22;20220;-79
2023/02/18 04:42:09;;;;;;;10.63;2.80;;;6.40;1.00;;;;;;6260763;22;20731;-80
2023/02/18 04:44:36;;;;;;;7.68;2.17;;;6.30;1.00;;;;;;6235889;22;20217;-80
2023/02/18 04:47:06;;;;;;;8.23;2.75;;;6.30;1.00;;;;;;6245333;22;20212;-80
2023/02/18 04:49:35;;;;;;;10.75;2.50;;;6.30;1.00;;;;;;6262458;22;20267;-79
2023/02/18 04:52:05;;;;;;;11.45;2.65;;;6.30;1.00;;;;;;6263888;22;20217;-79
2023/02/18 04:54:36;;;;;;;13.13;2.60;;;6.30;1.00;;;;;;6243400;22;20263;-79
2023/02/18 04:57:05;;;;;;;11.30;2.10;;;6.30;1.00;;;;;;6234674;22;20313;-79
2023/02/18 04:59:35;;;;;;;11.73;2.22;;;6.30;1.00;;;;;;6262108;22;20205;-78
2023/02/18 05:02:06;;;;;;;9.55;2.90;;;6.30;1.00;;;;;;6252927;22;20291;-79
2023/02/18 05:04:36;;;;;;;9.52;2.35;;;6.30;1.00;;;;;;6260290;22;20277;-79
2023/02/18 05:07:06;;;;;;;10.05;2.25;;;6.30;1.00;;;;;;6259272;22;20265;-79
2023/02/18 05:09:36;;;;;;;9.85;2.00;;;6.30;1.00;;;;;;6261418;22;20193;-80
2023/02/18 05:12:06;;;;;;;8.52;2.38;;;6.20;1.00;;;;;;6260945;22;20204;-80
2023/02/18 05:14:36;;;;;;;11.40;2.10;;;6.20;1.00;;;;;;6261706;22;20264;-78
2023/02/18 05:17:06;;;;;;;11.15;2.95;;;6.30;1.00;;;;;;6261402;22;20216;-79
2023/02/18 05:19:36;;;;;;;8.88;1.60;;;6.20;1.00;;;;;;6262338;22;20208;-79
2023/02/18 05:22:06;;;;;;;9.90;2.15;;;6.30;1.00;;;;;;6259712;22;20198;-79
2023/02/18 05:24:36;;;;;;;8.70;2.38;;;6.40;1.00;;;;;;6262377;22;20220;-79
2023/02/18 05:27:06;;;;;;;9.95;1.80;;;6.40;1.00;;;;;;6261147;22;20239;-80
2023/02/18 05:29:39;;;;;;;9.65;2.22;;;6.50;1.00;;;;;;6261604;22;20212;-81
2023/02/18 05:32:06;;;;;;;9.10;3.45;;;6.50;1.00;;;;;;6261211;22;20213;-79
2023/02/18 05:34:36;;;;;;;11.70;1.70;;;6.60;1.00;;;;;;6262081;22;20213;-78
2023/02/18 05:37:08;;;;;;;9.02;2.28;;;6.60;1.00;;;;;;6262254;22;20205;-79
2023/02/18 05:39:36;;;;;;;9.07;2.58;;;6.70;1.00;;;;;;6262116;22;20236;-79
2023/02/18 05:42:07;;;;;;;9.13;1.88;;;6.70;1.00;;;;;;6261062;22;20215;-78
2023/02/18 05:44:38;;;;;;;11.65;2.53;;;6.70;1.00;;;;;;6262161;22;20229;-80
2023/02/18 05:47:14;;;;;;;13.85;3.35;;;6.70;1.00;;;;;;6259880;22;20233;-78
2023/02/18 05:49:45;;;;;;;12.50;2.47;;;6.70;1.00;;;;;;6260700;22;20213;-78
2023/02/18 05:52:15;;;;;;;9.20;2.05;;;6.80;1.00;;;;;;6256008;22;20189;-79
2023/02/18 05:54:47;;;;;;;10.25;2.05;;;6.80;1.00;;;;;;6259137;22;20220;-79
2023/02/18 05:57:16;;;;;;;10.93;2.15;;;6.90;1.00;;;;;;6250806;22;20659;-80
2023/02/18 05:59:46;;;;;;;9.55;2.70;;;6.90;1.00;;;;;;6250930;22;20213;-80
2023/02/18 06:02:29;;;;;;;15.98;2.58;;;7.00;1.00;;;;;;6249017;22;20290;-78
2023/02/18 06:04:58;;;;;;;14.43;2.65;;;7.00;1.00;;;;;;6252296;22;20212;-77
2023/02/18 06:07:26;;;;;;;8.70;1.83;;;7.00;1.00;;;;;;6253178;22;20852;-78
2023/02/18 06:09:53;;;;;;;9.18;2.13;;;7.00;1.00;;;;;;6250473;22;20237;-77
2023/02/18 06:12:20;;;;;;;9.45;1.80;;;7.10;1.00;;;;;;6251801;22;20228;-78
2023/02/18 06:14:49;;;;;;;9.35;2.00;;;7.10;1.00;;;;;;6253029;22;20211;-81
2023/02/18 06:17:17;;;;;;;8.55;2.10;;;7.10;1.00;;;;;;6250159;22;20250;-78
2023/02/18 06:19:45;;;;;;;9.55;2.35;;;7.20;1.00;;;;;;6254213;22;20711;-79
2023/02/18 06:22:12;;;;;;;8.25;2.90;;;7.20;1.00;;;;;;6252453;22;20219;-79
2023/02/18 06:24:39;;;;;;;8.25;2.40;;;7.20;1.00;;;;;;6250285;22;20216;-78
2023/02/18 06:27:06;;;;;;;10.10;1.52;;;7.20;1.00;;;;;;6249258;22;20212;-77
2023/02/18 06:29:34;;;;;;;9.82;1.70;;;7.20;1.00;;;;;;6252792;22;20211;-77
2023/02/18 06:32:03;;;;;;;8.73;2.28;;;7.30;1.00;;;;;;6250472;22;20642;-77
2023/02/18 06:34:30;;;;;;;11.00;3.53;;;7.30;1.00;;;;;;6249582;22;20216;-78
2023/02/18 06:36:57;;;;;;;10.38;2.00;;;7.40;1.00;;;;;;6247848;22;20218;-78
2023/02/18 06:39:25;;;;;;;6.70;1.80;;;7.40;1.00;;;;;;6246346;22;20760;-77
2023/02/18 06:41:53;;;;;;;7.45;2.15;;;7.40;1.00;;;;;;6250688;22;20379;-77
2023/02/18 06:44:20;;;;;;;9.38;2.25;;;7.40;1.00;;;;;;6254990;22;20277;-78
2023/02/18 06:46:48;;;;;;;8.35;1.65;;;7.40;1.00;;;;;;6259066;22;20220;-77
2023/02/18 06:49:18;;;;;;;11.05;2.60;;;7.50;1.00;;;;;;6261618;22;20209;-78
2023/02/18 06:51:46;;;;;;;8.48;2.00;;;7.40;1.00;;;;;;6247245;22;20297;-77
2023/02/18 06:54:17;;;;;;;6.13;1.65;;;7.40;1.00;;;;;;6248798;22;20217;-79
2023/02/18 06:56:51;;;;;;;7.85;1.50;;;7.40;1.00;;;;;;6243851;22;20312;-78
2023/02/18 06:59:19;;;;;;;9.07;1.73;;;7.50;1.00;;;;;;6258708;22;20212;-77
2023/02/18 07:01:49;;;;;;;9.20;1.60;;;7.50;1.00;;;;;;6248752;22;20201;-78
2023/02/18 07:04:18;;;;;;;9.18;2.00;;;7.50;1.00;;;;;;6259186;22;20216;-78
2023/02/18 07:06:49;;;;;;;6.20;1.60;;;7.50;1.00;;;;;;6245744;22;20217;-78
2023/02/18 07:09:16;;;;;;;7.65;2.00;;;7.50;1.00;;;;;;6261909;22;20217;-77
2023/02/18 07:11:46;;;;;;;9.02;1.75;;;7.50;1.00;;;;;;6261597;22;20191;-77
2023/02/18 07:14:17;;;;;;;6.80;1.80;;;7.60;1.00;;;;;;6256717;22;20300;-78
2023/02/18 07:16:47;;;;;;;6.72;1.83;;;7.50;1.00;;;;;;6260762;22;20194;-77
2023/02/18 07:19:22;;;;;;;9.27;2.10;;;7.60;1.00;;;;;;6260221;22;20209;-78
2023/02/18 07:21:56;;;;;;;7.30;1.67;;;7.60;1.00;;;;;;6260410;22;20259;-78
2023/02/18 07:24:26;;;;;;;8.43;1.80;;;7.60;1.00;;;;;;6255600;22;20259;-76
2023/02/18 07:26:59;;;;;;;7.25;1.85;;;7.70;1.00;;;;;;6261584;22;20648;-79
2023/02/18 07:29:27;;;;;;;8.05;1.67;;;7.70;1.00;;;;;;6259077;22;20237;-79
2023/02/18 07:31:56;;;;;;;9.37;3.27;;;7.80;1.00;;;;;;6262557;22;20228;-78
2023/02/18 07:34:30;;;;;;;8.38;1.35;;;7.80;1.00;;;;;;6261026;22;20421;-78
2023/02/18 07:36:57;;;;;;;9.65;2.78;;;7.80;1.00;;;;;;6260735;22;20214;-78
2023/02/18 07:39:27;;;;;;;10.90;2.20;;;7.80;1.00;;;;;;6261381;22;20219;-77
2023/02/18 07:41:57;;;;;;;7.90;2.00;;;7.80;1.00;;;;;;6262507;22;20394;-78
2023/02/18 07:44:29;;;;;;;6.95;1.33;;;7.90;1.00;;;;;;6241942;22;20212;-77
2023/02/18 07:46:57;;;;;;;6.88;1.70;;;7.90;1.00;;;;;;6257183;22;20214;-78
2023/02/18 07:49:29;;;;;;;8.23;1.77;;;7.90;1.00;;;;;;6262460;22;20202;-79
2023/02/18 07:51:57;;;;;;;7.13;1.45;;;8.00;1.00;;;;;;6262946;22;20218;-78
2023/02/18 07:54:31;;;;;;;6.63;1.27;;;8.00;1.00;;;;;;6260774;22;20216;-77
2023/02/18 07:56:58;;;;;;;10.45;2.00;;;8.10;1.00;;;;;;6261885;22;20443;-78
2023/02/18 07:59:27;;;;;;;6.85;1.33;;;8.00;1.00;;;;;;6261702;22;20209;-78
2023/02/18 08:01:57;;;;;;;6.53;1.70;;;8.10;1.00;;;;;;6260766;22;20205;-77
2023/02/18 08:04:37;;;;;;;9.80;2.33;;;8.10;1.00;;;;;;6261250;22;20210;-80
2023/02/18 08:07:07;;;;;;;8.45;1.55;;;8.00;1.00;;;;;;6263013;22;20225;-79
2023/02/18 08:09:38;;;;;;;9.05;1.52;;;7.80;1.00;;;;;;6248180;22;20416;-79
2023/02/18 08:12:10;;;;;;;7.03;1.70;;;7.60;1.00;;;;;;6248414;22;20288;-79
2023/02/18 08:14:41;;;;;;;8.80;1.60;;;7.60;1.00;;;;;;6263155;22;20208;-79
2023/02/18 08:17:10;;;;;;;8.38;2.10;;;7.70;1.00;;;;;;6248653;22;20210;-78
2023/02/18 08:19:41;;;;;;;8.27;1.95;;;7.80;1.00;;;;;;6261705;22;20219;-78
2023/02/18 08:22:09;;;;;;;8.57;1.48;;;7.80;1.00;;;;;;6262320;22;20213;-79
2023/02/18 08:24:37;;;;;;;6.13;1.30;;;7.80;1.00;;;;;;6263290;22;20224;-81
2023/02/18 08:27:06;;;;;;;7.50;1.90;;;7.90;1.00;;;;;;6265527;22;20214;-80
2023/02/18 08:29:37;;;;;;;11.05;2.22;;;8.00;1.00;;;;;;6266449;22;20255;-79
2023/02/18 08:32:12;;;;;;;6.97;1.58;;;8.00;1.00;;;;;;6261732;22;20216;-78
2023/02/18 08:34:47;;;;;;;8.40;2.42;;;7.90;1.00;;;;;;6263911;22;20210;-80
2023/02/18 08:37:18;;;;;;;6.90;1.45;;;7.70;1.00;;;;;;6262218;22;20239;-81
2023/02/18 08:39:47;;;;;;;8.30;2.08;;;7.60;1.00;;;;;;6261235;22;21098;-76
2023/02/18 08:42:17;;;;;;;8.88;2.42;;;7.40;1.00;;;;;;6262140;22;20216;-78
2023/02/18 08:44:47;;;;;;;8.57;2.03;;;7.40;1.00;;;;;;6264219;22;20236;-79
2023/02/18 08:47:17;;;;;;;10.45;2.20;;;7.30;1.00;;;;;;6257386;22;20214;-78
2023/02/18 08:49:47;;;;;;;8.20;1.80;;;7.30;1.00;;;;;;6235254;22;20229;-79
2023/02/18 08:52:17;;;;;;;6.68;1.50;;;7.30;1.00;;;;;;6252992;22;20214;-77
2023/02/18 08:54:57;;;;;;;8.18;1.83;;;7.30;1.00;;;;;;6261765;22;20261;-78
2023/02/18 08:57:27;;;;;;;7.50;1.98;;;7.30;1.00;;;;;;6262142;22;20215;-79
2023/02/18 09:00:00;;;;;;;8.00;1.97;;;7.30;1.00;;;;;;6262985;22;20237;-78
2023/02/18 09:02:28;;;;;;;9.30;1.95;;;7.20;1.00;;;;;;6243627;22;20388;-80
2023/02/18 09:05:02;;;;;;;8.23;2.33;;;7.20;1.00;;;;;;6244165;22;20221;-78
2023/02/18 09:07:32;;;;;;;7.68;2.22;;;7.20;1.00;;;;;;6202434;22;20302;-76
2023/02/18 09:10:00;;;;;;;10.65;3.10;;;7.20;1.00;;;;;;6262359;22;20825;-77
2023/02/18 09:12:28;;;;;;;10.40;2.15;;;7.10;1.00;;;;;;6261837;22;20190;-78
2023/02/18 09:14:57;;;;;;;10.43;2.00;;;7.10;1.00;;;;;;6263428;22;20217;-78
2023/02/18 09:17:37;;;;;;;11.27;2.83;;;7.10;1.00;;;;;;6253217;22;20250;-78
2023/02/18 09:20:09;;;;;;;10.23;2.65;;;7.10;1.00;;;;;;6261610;22;20210;-78
2023/02/18 09:22:40;;;;;;;12.23;2.70;;;7.10;1.00;;;;;;6236613;22;20245;-80
2023/02/18 09:25:08;;;;;;;8.95;2.05;;;7.10;1.00;;;;;;6261656;22;20266;-78
2023/02/18 09:27:37;;;;;;;10.15;2.60;;;7.20;1.00;;;;;;6251633;22;20213;-78
2023/02/18 09:30:06;;;;;;;11.48;2.20;;;7.20;1.00;;;;;;6260128;22;20223;-78
2023/02/18 09:32:35;;;;;;;10.13;2.42;;;7.20;1.00;;;;;;6257121;22;20343;-78
2023/02/18 09:35:09;;;;;;;7.95;2.22;;;7.20;1.00;;;;;;6259111;22;20857;-78
2023/02/18 09:37:42;;;;;;;7.55;1.70;;;7.20;1.00;;;;;;6236651;22;20205;-79
2023/02/18 09:40:24;;;;;;;9.57;2.35;;;7.20;1.00;;;;;;6238288;22;20209;-78
2023/02/18 09:42:57;;;;;;;10.73;2.78;;;7.10;1.00;;;;;;6213685;22;20223;-78
2023/02/18 09:45:27;;;;;;;12.25;3.53;;;7.20;1.00;;;;;;6211266;22;20225;-79
2023/02/18 09:47:58;;;;;;;11.88;3.08;;;7.30;1.00;;;;;;6216881;22;20217;-78
2023/02/18 09:50:36;;;;;;;10.30;2.50;;;7.30;1.00;;;;;;6217555;22;20306;-78
2023/02/18 09:53:04;;;;;;;8.90;2.60;;;7.30;1.00;;;;;;6210490;22;20217;-77
2023/02/18 09:55:35;;;;;;;13.40;3.13;;;7.20;1.00;;;;;;6209449;22;20285;-78
2023/02/18 09:58:04;;;;;;;11.00;2.60;;;7.10;1.00;;;;;;6211163;22;20214;-80
2023/02/18 10:00:35;;;;;;;11.50;3.05;;;7.20;1.00;;;;;;6201438;22;20286;-79
2023/02/18 10:03:09;;;;;;;9.77;3.00;;;7.10;1.00;;;;;;6201968;22;20228;-77
2023/02/18 10:05:41;;;;;;;10.10;2.65;;;7.10;1.00;;;;;;6205871;22;20225;-79
2023/02/18 10:08:20;;;;;;;10.10;2.80;;;7.10;1.00;;;;;;6210515;22;20233;-78
2023/02/18 10:10:47;;;;;;;11.13;3.30;;;7.10;1.00;;;;;;6214702;22;20217;-79
2023/02/18 10:13:16;;;;;;;9.05;2.83;;;7.00;1.00;;;;;;6207920;22;20226;-79
2023/02/18 10:15:45;;;;;;;11.52;3.42;;;6.90;1.00;;;;;;6211335;22;20191;-80
2023/02/18 10:18:25;;;;;;;12.32;3.53;;;7.00;1.00;;;;;;6205449;22;20895;-78
2023/02/18 10:21:06;;;;;;;10.57;3.40;;;6.90;1.00;;;;;;6213968;22;20313;-77
2023/02/18 10:23:36;;;;;;;13.30;3.90;;;7.00;1.00;;;;;;6219213;22;20223;-77
2023/02/18 10:26:07;;;;;;;13.90;3.13;;;7.00;1.00;;;;;;6206194;22;20221;-77
2023/02/18 10:28:36;;;;;;;10.18;3.30;;;7.00;1.00;;;;;;6217297;22;20214;-77
2023/02/18 10:31:10;;;;;;;11.90;2.95;;;7.00;1.00;;;;;;6215983;22;20273;-77
2023/02/18 10:33:46;;;;;;;13.10;3.03;;;7.10;1.00;;;;;;6212319;22;20214;-78
2023/02/18 10:36:26;;;;;;;14.85;3.30;;;7.10;1.00;;;;;;6217013;22;20248;-77
2023/02/18 10:39:35;;;;;;;12.00;3.20;;;7.10;1.00;;;;;;6218021;22;20240;-79
2023/02/18 10:42:18;;;;;;;10.32;2.97;;;7.10;1.00;;;;;;6198068;22;21016;-78
2023/02/18 10:44:58;;;;;;;11.48;3.92;;;7.20;1.00;;;;;;6251702;22;20223;-78
2023/02/18 10:47:39;;;;;;;11.18;3.60;;;7.20;1.00;;;;;;6233441;22;21000;-79
2023/02/18 10:50:12;;;;;;;14.40;4.20;;;7.10;1.00;;;;;;6233970;22;20210;-78
2023/02/18 10:52:43;;;;;;;14.05;3.97;;;7.20;1.00;;;;;;6255046;22;20218;-78
2023/02/18 10:55:23;;;;;;;14.10;4.20;;;7.30;1.00;;;;;;6236837;22;20283;-83
2023/02/18 10:57:51;;;;;;;13.82;3.97;;;7.30;1.00;;;;;;6254305;22;20472;-78
2023/02/18 11:00:23;;;;;;;13.18;3.85;;;7.40;1.00;;;;;;6255313;22;20232;-79
2023/02/18 11:03:04;;;;;;;11.07;3.75;;;7.30;1.00;;;;;;6257209;22;20242;-78
2023/02/18 11:05:35;;;;;;;10.50;3.60;;;7.30;1.00;;;;;;6252061;22;20221;-79
2023/02/18 11:08:19;;;;;;;10.63;3.00;;;7.30;1.00;;;;;;6261654;22;20512;-79
2023/02/18 11:10:50;;;;;;;9.07;3.33;;;7.30;1.00;;;;;;6260783;22;20424;-78
2023/02/18 11:13:26;;;;;;;12.23;3.20;;;7.30;1.00;;;;;;6261804;22;20214;-78
2023/02/18 11:16:03;;;;;;;10.47;2.93;;;7.40;1.00;;;;;;6262292;22;20209;-78
2023/02/18 11:18:39;;;;;;;8.50;2.67;;;7.40;1.00;;;;;;6245006;22;20515;-80
2023/02/18 11:21:19;;;;;;;8.23;2.42;;;7.50;1.00;;;;;;6241225;22;21081;-78
2023/02/18 11:23:51;;;;;;;11.03;3.23;;;7.50;1.00;;;;;;6238609;22;20225;-79
2023/02/18 11:26:26;;;;;;;9.68;2.65;;;7.60;1.00;;;;;;6238678;22;20533;-78
2023/02/18 11:29:02;;;;;;;9.45;2.60;;;7.50;1.00;;;;;;6238304;22;20690;-78
2023/02/18 11:31:48;;;;;;;8.45;2.80;;;7.50;1.00;;;;;;6226876;22;20302;-79
2023/02/18 11:34:18;;;;;;;6.72;2.25;;;7.60;1.00;;;;;;6255127;22;20276;-78
2023/02/18 11:36:48;;;;;;;9.20;3.08;;;7.50;1.00;;;;;;6259495;22;20245;-81
2023/02/18 11:39:23;;;;;;;8.13;2.45;;;7.50;1.00;;;;;;6256830;22;20244;-79
2023/02/18 11:42:14;;;;;;;8.07;3.65;;;7.40;1.00;;;;;;6216674;22;20210;-78
2023/02/18 11:44:53;;;;;;;9.73;2.80;;;7.30;1.00;;;;;;6257549;22;20258;-79
2023/02/18 11:47:30;;;;;;;8.10;3.17;;;7.30;1.00;;;;;;6262741;22;20418;-79
2023/02/18 11:50:15;;;;;;;8.43;3.75;;;7.30;1.00;;;;;;6261448;22;20214;-78
2023/02/18 11:52:44;;;;;;;10.32;4.07;;;7.40;1.00;;;;;;6260816;22;20238;-82
2023/02/18 11:55:20;;;;;;;7.32;2.35;;;7.40;1.00;;;;;;6262151;22;20288;-80
2023/02/18 11:57:58;;;;;;;7.30;2.77;;;7.50;1.00;;;;;;6263385;22;20209;-79
2023/02/18 12:00:46;;;;;;;8.15;3.03;;;7.50;1.00;;;;;;6256506;22;20405;-79
2023/02/18 12:03:29;;;;;;;6.80;2.20;;;7.60;1.00;;;;;;6259209;22;20207;-79
2023/02/18 12:06:02;;;;;;;7.40;2.67;;;7.50;1.00;;;;;;6262710;22;20230;-80
2023/02/18 12:08:38;;;;;;;7.23;2.90;;;7.50;1.00;;;;;;6258369;22;20695;-81
2023/02/18 12:11:16;;;;;;;6.65;2.65;;;7.60;1.00;;;;;;6258948;22;20400;-80
2023/02/18 12:13:52;;;;;;;6.47;2.55;;;7.60;1.00;;;;;;6263093;22;20220;-80
2023/02/18 12:16:31;;;;;;;9.88;2.97;;;7.70;1.00;;;;;;6260229;22;20214;-82
2023/02/18 12:19:21;;;;;;;8.15;2.90;;;7.80;1.00;;;;;;6266466;22;20211;-81
2023/02/18 12:21:59;;;;;;;6.15;2.58;;;7.90;1.00;;;;;;6263030;22;20201;-77
2023/02/18 12:24:46;;;;;;;6.53;2.60;;;7.90;1.00;;;;;;6259558;22;20212;-79
2023/02/18 12:27:25;;;;;;;6.90;3.45;;;8.10;1.00;;;;;;6259472;22;20215;-77
2023/02/18 12:30:51;;;;;;;6.70;3.00;;;8.20;1.00;;;;;;6261634;22;20271;-76
2023/02/18 12:33:28;;;;;;;7.43;4.00;;;8.30;1.00;;;;;;6258038;22;21205;-79
2023/02/18 12:36:10;;;;;;;8.77;3.30;;;8.40;1.00;;;;;;6259335;22;20219;-76
2023/02/18 12:39:05;;;;;;;7.13;4.05;;;8.40;1.00;;;;;;6258076;22;20263;-79
2023/02/18 12:41:52;;;;;;;7.37;3.70;;;8.50;1.00;;;;;;6259916;22;20296;-80
2023/02/18 12:44:42;;;;;;;7.90;4.03;;;8.60;1.00;;;;;;6259471;22;20422;-80
2023/02/18 12:47:44;;;;;;;7.55;4.03;;;8.70;1.00;;;;;;6243530;22;20515;-78
2023/02/18 12:50:42;;;;;;;7.53;3.70;;;8.80;1.00;;;;;;6245438;22;20223;-80
2023/02/18 12:53:50;;;;;;;9.90;4.20;;;8.90;1.00;;;;;;6261097;22;20246;-81
2023/02/18 12:56:40;;;;;;;8.57;4.83;;;9.00;1.00;;;;;;6260027;22;20419;-81
2023/02/18 12:59:30;;;;;;;8.40;4.27;;;9.20;1.00;;;;;;6258353;22;20426;-78
2023/02/18 13:02:12;;;;;;;7.90;3.90;;;9.30;1.00;;;;;;6261885;22;20444;-81
2023/02/18 13:04:52;;;;;;;7.30;4.30;;;9.40;1.00;;;;;;6255346;22;21122;-79
2023/02/18 13:07:54;;;;;;;9.13;4.77;;;9.50;1.00;;;;;;6253933;22;20424;-79
2023/02/18 13:10:47;;;;;;;9.90;4.90;;;9.70;1.00;;;;;;6254025;22;20440;-76
2023/02/18 13:13:20;;;;;;;9.70;4.40;;;9.80;1.00;;;;;;6253395;22;20420;-78
2023/02/18 13:15:53;;;;;;;8.50;4.83;;;9.90;1.00;;;;;;6263974;22;20376;-80
2023/02/18 13:18:33;;;;;;;7.77;4.23;;;10.00;1.00;;;;;;6261432;22;20448;-79
2023/02/18 13:21:04;;;;;;;9.60;4.33;;;10.10;1.00;;;;;;6264136;22;20403;-78
2023/02/18 13:23:50;;;;;;;7.10;4.10;;;10.20;1.00;;;;;;6209719;22;20403;-77
2023/02/18 13:26:21;;;;;;;7.60;4.30;;;10.20;1.00;;;;;;6245995;22;20436;-76
2023/02/18 13:29:09;;;;;;;7.40;4.33;;;10.20;1.00;;;;;;6244731;22;20411;-76
2023/02/18 13:31:47;;;;;;;10.00;4.10;;;10.30;1.00;;;;;;6261144;22;20384;-77
2023/02/18 13:34:29;;;;;;;6.70;3.60;;;10.30;1.00;;;;;;6261903;22;20424;-76
2023/02/18 13:37:13;;;;;;;6.60;3.73;;;10.30;1.00;;;;;;6263378;22;20384;-79
2023/02/18 13:39:50;;;;;;;9.37;3.47;;;10.30;1.00;;;;;;6237197;22;20400;-78